Time;durP1;ratioP1;P1;durP2;ratioP2;P2;SDS_P1;SDS_P2;PMS_P1;PMS_P2;Temp;Humidity;BMP_temperature;BMP_pressure;BME280_temperature;BME280_humidity;BME280_pressure;Samples;Min_cycle;Max_cycle;Signal;HPM_P1;HPM_P2
2021/01/30 00:01:29;;;;;;;1.77;0.90;;;;;;;25.74;37.50;96983.09;4971281;28;20297;-59
2021/01/30 00:03:55;;;;;;;5.07;0.65;;;;;;;25.74;37.54;96989.25;4971015;28;20685;-57
2021/01/30 00:06:21;;;;;;;1.65;0.40;;;;;;;25.72;37.34;96985.97;4973591;28;20565;-58
2021/01/30 00:08:47;;;;;;;2.42;0.50;;;;;;;25.70;37.41;96985.38;4990661;28;20205;-60
2021/01/30 00:11:13;;;;;;;0.90;0.40;;;;;;;25.72;37.80;96991.34;4993237;28;20197;-58
2021/01/30 00:13:41;;;;;;;1.80;0.52;;;;;;;25.70;37.98;96998.78;4991383;28;20304;-59
2021/01/30 00:16:08;;;;;;;4.97;0.50;;;;;;;25.67;37.94;97004.56;4992673;28;20208;-59
2021/01/30 00:18:34;;;;;;;1.65;0.52;;;;;;;25.65;37.18;97007.44;4993661;28;20255;-60
2021/01/30 00:21:01;;;;;;;2.65;0.47;;;;;;;25.66;37.41;97002.91;4993652;28;20535;-59
2021/01/30 00:23:27;;;;;;;1.55;0.60;;;;;;;25.69;37.10;97007.00;4993127;28;20229;-59
2021/01/30 00:25:53;;;;;;;0.88;0.35;;;;;;;25.63;37.88;96996.13;4991885;28;20724;-58
2021/01/30 00:28:19;;;;;;;0.63;0.50;;;;;;;25.65;37.50;96995.94;4991747;28;20552;-58
2021/01/30 00:30:45;;;;;;;2.90;0.40;;;;;;;25.68;38.22;97000.84;4991995;28;20298;-58
2021/01/30 00:33:12;;;;;;;1.67;0.50;;;;;;;25.64;37.65;96991.59;4991412;28;20597;-59
2021/01/30 00:35:38;;;;;;;4.38;0.30;;;;;;;25.57;37.81;96998.84;4985210;28;20205;-59
2021/01/30 00:38:05;;;;;;;0.65;0.38;;;;;;;25.57;37.81;96994.31;4992955;28;20316;-58
2021/01/30 00:40:31;;;;;;;2.42;0.57;;;;;;;25.48;38.11;97007.13;4992230;28;20201;-59
2021/01/30 00:42:57;;;;;;;4.03;0.57;;;;;;;25.49;36.79;96990.03;4973353;28;20775;-57
2021/01/30 00:45:25;;;;;;;1.65;0.40;;;;;;;25.44;37.49;96995.22;4973688;28;20264;-58
2021/01/30 00:47:51;;;;;;;1.50;0.40;;;;;;;25.45;37.19;96991.50;4974848;28;20209;-56
2021/01/30 00:50:19;;;;;;;1.17;0.45;;;;;;;25.41;37.54;96992.16;4972732;28;20206;-58
2021/01/30 00:52:46;;;;;;;1.67;0.45;;;;;;;25.37;37.65;96997.13;4975297;28;20230;-59
2021/01/30 00:55:14;;;;;;;2.53;0.47;;;;;;;25.36;38.43;96992.78;4994061;28;20209;-59
2021/01/30 00:57:40;;;;;;;0.80;0.43;;;;;;;25.29;37.24;96992.81;4993350;28;20219;-57
2021/01/30 01:00:09;;;;;;;2.95;0.63;;;;;;;25.23;36.95;96998.19;4993168;28;20752;-60
2021/01/30 01:02:36;;;;;;;0.85;0.28;;;;;;;25.23;38.49;96998.19;4993706;28;20228;-58
2021/01/30 01:05:03;;;;;;;1.75;0.40;;;;;;;25.23;38.83;96984.81;4992049;28;20205;-60
2021/01/30 01:07:30;;;;;;;5.15;0.50;;;;;;;25.17;37.85;97001.72;4993288;28;20292;-58
2021/01/30 01:09:56;;;;;;;1.02;0.32;;;;;;;25.23;38.86;96991.00;4991400;28;20205;-58
2021/01/30 01:12:22;;;;;;;1.20;0.60;;;;;;;25.19;38.31;96992.44;4990929;28;20225;-57
2021/01/30 01:14:48;;;;;;;2.85;0.57;;;;;;;25.17;39.16;96999.06;4972434;28;20202;-58
2021/01/30 01:17:14;;;;;;;1.08;0.57;;;;;;;25.21;38.07;96986.88;4978336;28;20198;-58
2021/01/30 01:19:41;;;;;;;1.50;0.40;;;;;;;25.13;38.49;96993.31;4992020;28;20201;-59
2021/01/30 01:22:07;;;;;;;1.52;0.30;;;;;;;25.14;37.67;97005.63;4990754;28;20225;-58
2021/01/30 01:24:34;;;;;;;1.55;0.68;;;;;;;25.10;38.55;96993.72;4992906;28;20255;-57
2021/01/30 01:27:00;;;;;;;0.30;0.25;;;;;;;25.12;38.38;97002.34;4991404;28;20700;-57
2021/01/30 01:29:28;;;;;;;0.95;0.35;;;;;;;25.11;38.54;97006.91;4991198;28;20208;-59
2021/01/30 01:31:56;;;;;;;1.42;0.45;;;;;;;25.11;37.55;97001.53;4992494;28;20233;-58
2021/01/30 01:34:24;;;;;;;0.28;0.28;;;;;;;25.09;38.27;97008.94;4991831;28;20208;-58
2021/01/30 01:36:56;;;;;;;1.63;0.40;;;;;;;25.11;38.82;96996.19;4991511;28;20197;-59
2021/01/30 01:39:22;;;;;;;0.40;0.30;;;;;;;25.09;37.87;96992.91;4992402;28;20281;-59
2021/01/30 01:41:59;;;;;;;1.55;0.60;;;;;;;25.11;38.49;97001.53;4991453;28;20288;-58
2021/01/30 01:44:25;;;;;;;0.70;0.38;;;;;;;25.08;37.90;97010.00;4989107;28;20270;-59
2021/01/30 01:46:54;;;;;;;0.50;0.30;;;;;;;25.03;39.08;97004.47;4972781;28;20669;-59
2021/01/30 01:49:26;;;;;;;0.80;0.43;;;;;;;25.07;39.16;97000.31;4987623;28;20208;-58
2021/01/30 01:52:03;;;;;;;1.08;0.40;;;;;;;25.09;39.06;97006.25;4983133;28;20221;-56
2021/01/30 01:54:31;;;;;;;0.60;0.40;;;;;;;25.07;39.14;97012.88;4992725;28;20201;-58
2021/01/30 01:57:04;;;;;;;1.30;0.30;;;;;;;25.03;38.54;97009.81;4982482;28;20206;-58
2021/01/30 01:59:30;;;;;;;0.52;0.30;;;;;;;25.06;39.10;97014.72;4992679;28;20217;-55
2021/01/30 02:01:56;;;;;;;2.38;0.30;;;;;;;25.05;38.45;97007.72;4990343;28;20228;-58
2021/01/30 02:04:24;;;;;;;0.35;0.30;;;;;;;25.04;39.12;97011.44;4990560;28;20225;-57
2021/01/30 02:06:52;;;;;;;1.85;0.40;;;;;;;25.03;38.35;97007.13;4988991;28;20204;-58
2021/01/30 02:09:23;;;;;;;1.23;0.35;;;;;;;25.04;39.07;97003.41;4991800;28;20669;-59
2021/01/30 02:11:59;;;;;;;1.85;0.32;;;;;;;24.95;39.03;97004.69;4992463;28;20225;-58
2021/01/30 02:14:27;;;;;;;0.80;0.40;;;;;;;24.91;38.45;97001.63;4991584;28;20560;-57
2021/01/30 02:17:02;;;;;;;2.10;0.40;;;;;;;24.96;38.74;97000.97;4990306;28;20219;-57
2021/01/30 02:20:13;;;;;;;0.77;0.32;;;;;;;24.91;39.53;97000.78;4992463;28;20211;-57
2021/01/30 02:23:29;;;;;;;0.65;0.45;;;;;;;24.90;39.16;96999.16;4991604;28;20252;-59
2021/01/30 02:26:27;;;;;;;1.90;0.50;;;;;;;24.78;38.83;96990.16;4977278;28;20269;-58
2021/01/30 02:29:10;;;;;;;0.70;0.35;;;;;;;24.77;39.59;96988.53;4991781;28;20205;-58
2021/01/30 02:31:54;;;;;;;0.70;0.30;;;;;;;24.75;38.96;96989.53;4992102;28;20209;-59
2021/01/30 02:34:42;;;;;;;0.73;0.30;;;;;;;24.82;39.05;96986.84;4991901;28;20555;-58
2021/01/30 02:37:14;;;;;;;0.20;0.17;;;;;;;24.83;39.93;96987.66;4991529;28;20284;-56
2021/01/30 02:39:48;;;;;;;1.33;0.50;;;;;;;24.90;38.92;96993.81;4991017;28;20285;-57
2021/01/30 02:42:17;;;;;;;0.98;0.40;;;;;;;24.96;39.16;96990.28;4991920;28;20229;-59
2021/01/30 02:44:50;;;;;;;1.05;0.30;;;;;;;25.01;38.92;96993.13;4988212;28;20296;-56
2021/01/30 02:47:21;;;;;;;0.45;0.20;;;;;;;25.07;39.16;96992.28;4972900;28;20252;-58
2021/01/30 02:49:52;;;;;;;0.52;0.30;;;;;;;25.07;38.46;96973.56;4984117;28;20201;-61
2021/01/30 02:52:23;;;;;;;0.40;0.30;;;;;;;25.14;39.46;96981.56;4992329;28;20241;-61
2021/01/30 02:54:53;;;;;;;0.90;0.43;;;;;;;25.21;38.19;96985.00;4991503;28;20209;-58
2021/01/30 02:57:19;;;;;;;0.60;0.50;;;;;;;25.22;38.80;96980.50;4990907;28;20217;-59
2021/01/30 02:59:48;;;;;;;1.95;0.35;;;;;;;25.25;38.77;96972.88;4990605;28;20231;-58
2021/01/30 03:02:15;;;;;;;0.65;0.40;;;;;;;25.29;37.90;96966.06;4990371;28;20309;-57
2021/01/30 03:04:41;;;;;;;0.65;0.35;;;;;;;25.36;37.94;96965.22;4990995;28;20201;-58
2021/01/30 03:07:47;;;;;;;0.30;0.20;;;;;;;25.32;38.82;96967.50;4990893;28;20311;-56
2021/01/30 03:10:22;;;;;;;0.52;0.30;;;;;;;25.34;38.26;96962.75;4986850;28;20213;-59
2021/01/30 03:12:55;;;;;;;0.63;0.32;;;;;;;25.40;37.83;96961.91;4991519;28;20232;-58
2021/01/30 03:15:26;;;;;;;1.20;0.40;;;;;;;25.42;38.06;96965.19;4991446;28;20214;-58
2021/01/30 03:17:54;;;;;;;0.63;0.40;;;;;;;25.40;38.20;96964.59;4991598;28;20695;-58
2021/01/30 03:20:21;;;;;;;0.20;0.20;;;;;;;25.47;38.64;96962.69;4989793;28;20240;-57
2021/01/30 03:22:48;;;;;;;0.30;0.20;;;;;;;25.55;37.62;96964.28;4990700;28;20222;-55
2021/01/30 03:25:19;;;;;;;0.60;0.40;;;;;;;25.49;37.75;96960.59;4991528;28;20288;-56
2021/01/30 03:27:48;;;;;;;2.58;0.52;;;;;;;25.47;38.64;96954.66;4990947;28;20212;-57
2021/01/30 03:30:15;;;;;;;0.75;0.32;;;;;;;25.38;38.02;96958.63;4990602;28;20634;-55
2021/01/30 03:32:43;;;;;;;1.35;0.30;;;;;;;25.40;38.26;96964.59;4990595;28;20652;-57
2021/01/30 03:35:12;;;;;;;0.90;0.43;;;;;;;25.45;38.03;96964.75;4990628;28;20242;-56
2021/01/30 03:37:39;;;;;;;0.73;0.38;;;;;;;25.50;37.74;96964.13;4991142;28;20206;-56
2021/01/30 03:40:07;;;;;;;0.90;0.32;;;;;;;25.56;38.06;96962.41;4993928;28;20259;-55
2021/01/30 03:42:35;;;;;;;0.82;0.30;;;;;;;25.61;38.33;96959.91;4994547;28;20323;-53
2021/01/30 03:45:01;;;;;;;0.68;0.40;;;;;;;25.63;38.35;96965.84;4994253;28;20189;-57
2021/01/30 03:47:27;;;;;;;0.30;0.20;;;;;;;25.60;38.05;96955.63;4992817;28;20677;-57
2021/01/30 03:49:53;;;;;;;1.83;0.50;;;;;;;25.58;38.54;96953.16;4993922;28;20204;-57
2021/01/30 03:52:19;;;;;;;0.43;0.20;;;;;;;25.66;38.33;96946.69;4986125;28;20230;-55
2021/01/30 03:54:46;;;;;;;0.38;0.30;;;;;;;25.65;37.59;96942.41;4974774;28;20300;-58
2021/01/30 03:57:12;;;;;;;1.45;0.47;;;;;;;25.64;37.61;96940.75;4988052;28;20213;-58
2021/01/30 03:59:38;;;;;;;0.65;0.50;;;;;;;25.62;37.60;96946.31;4994404;28;20213;-58
2021/01/30 04:02:07;;;;;;;1.38;0.40;;;;;;;25.65;37.32;96939.72;4992616;28;20693;-58
2021/01/30 04:04:33;;;;;;;0.40;0.40;;;;;;;25.64;37.51;96938.06;4994471;28;20209;-58
2021/01/30 04:06:59;;;;;;;1.45;0.25;;;;;;;25.64;37.68;96930.03;4993003;28;20205;-58
2021/01/30 04:09:26;;;;;;;0.57;0.40;;;;;;;25.58;37.45;96925.56;4978678;28;20210;-56
2021/01/30 04:11:53;;;;;;;0.63;0.40;;;;;;;25.61;37.79;96922.44;4974803;28;20352;-58
2021/01/30 04:14:20;;;;;;;0.30;0.30;;;;;;;25.57;38.34;96918.56;4974585;28;20202;-57
2021/01/30 04:16:47;;;;;;;0.95;0.30;;;;;;;25.62;37.61;96916.06;4973232;28;20202;-57
2021/01/30 04:19:13;;;;;;;0.80;0.38;;;;;;;25.59;37.40;96913.81;4974576;28;20206;-57
2021/01/30 04:21:40;;;;;;;2.30;0.63;;;;;;;25.51;37.60;96906.06;4974805;28;20235;-57
2021/01/30 04:24:07;;;;;;;0.60;0.30;;;;;;;25.54;37.48;96898.41;4972924;28;20226;-57
2021/01/30 04:26:33;;;;;;;0.35;0.35;;;;;;;25.43;38.14;96896.44;4974988;28;20733;-58
2021/01/30 04:28:59;;;;;;;0.65;0.30;;;;;;;25.49;37.83;96907.09;4973827;28;20206;-59
2021/01/30 04:31:25;;;;;;;0.20;0.20;;;;;;;25.45;38.50;96899.72;4972307;28;20268;-59
2021/01/30 04:33:52;;;;;;;1.92;0.47;;;;;;;25.44;38.13;96898.91;4973824;28;20240;-58
2021/01/30 04:36:22;;;;;;;0.30;0.30;;;;;;;25.38;38.47;96896.25;4973830;28;20257;-57
2021/01/30 04:38:50;;;;;;;1.15;0.20;;;;;;;25.36;37.93;96896.47;4974807;28;20208;-58
2021/01/30 04:41:31;;;;;;;0.77;0.40;;;;;;;25.40;38.50;96892.34;4974060;28;20587;-57
2021/01/30 04:44:02;;;;;;;0.73;0.50;;;;;;;25.32;38.39;96906.00;4973789;28;20315;-56
2021/01/30 04:46:54;;;;;;;1.75;0.30;;;;;;;25.29;37.83;96904.56;4993736;28;20205;-58
2021/01/30 04:49:30;;;;;;;1.23;0.43;;;;;;;25.32;37.60;96895.28;4993533;28;20206;-57
2021/01/30 04:52:03;;;;;;;1.00;0.30;;;;;;;25.31;37.85;96896.31;4993575;28;20288;-58
2021/01/30 04:54:44;;;;;;;1.02;0.60;;;;;;;25.30;38.69;96886.66;4992267;28;20301;-59
2021/01/30 04:57:23;;;;;;;4.25;0.45;;;;;;;25.27;38.24;96881.75;4994043;28;20215;-56
2021/01/30 05:00:05;;;;;;;0.43;0.30;;;;;;;25.24;38.41;96871.44;4990492;28;20202;-58
2021/01/30 05:02:38;;;;;;;1.10;0.30;;;;;;;25.27;38.72;96871.06;4975276;28;20304;-57
2021/01/30 05:05:11;;;;;;;0.52;0.40;;;;;;;25.26;37.92;96877.41;4973682;28;20216;-59
2021/01/30 05:07:42;;;;;;;1.13;0.40;;;;;;;25.26;38.19;96864.03;4973882;28;20217;-56
2021/01/30 05:10:16;;;;;;;0.55;0.30;;;;;;;25.28;38.12;96873.50;4974114;28;20210;-56
2021/01/30 05:12:47;;;;;;;1.08;0.30;;;;;;;25.28;38.35;96867.31;4983202;28;20225;-59
2021/01/30 05:15:19;;;;;;;2.83;0.30;;;;;;;25.27;38.46;96871.06;4993101;28;20293;-58
2021/01/30 05:17:54;;;;;;;0.77;0.30;;;;;;;25.29;37.58;96867.09;4994181;28;20581;-58
2021/01/30 05:20:21;;;;;;;1.23;0.65;;;;;;;25.33;38.47;96869.34;4994356;28;20204;-58
2021/01/30 05:22:48;;;;;;;0.50;0.40;;;;;;;25.27;38.71;96869.19;4991449;28;20229;-58
2021/01/30 05:25:17;;;;;;;0.43;0.30;;;;;;;25.24;37.77;96863.44;4990415;28;20209;-59
2021/01/30 05:28:02;;;;;;;1.45;0.30;;;;;;;25.21;38.09;96858.50;4993687;28;20528;-57
2021/01/30 05:30:41;;;;;;;0.35;0.35;;;;;;;25.24;38.46;96855.41;4993293;28;20197;-58
2021/01/30 05:33:20;;;;;;;1.85;0.77;;;;;;;25.26;38.27;96858.66;4993198;28;20237;-60
2021/01/30 05:35:52;;;;;;;1.65;0.40;;;;;;;25.32;37.70;96860.50;4993531;28;20653;-57
2021/01/30 05:38:32;;;;;;;0.85;0.43;;;;;;;25.34;38.58;96863.78;4993609;28;20216;-59
2021/01/30 05:41:03;;;;;;;4.05;0.47;;;;;;;25.28;38.91;96861.97;4993373;28;20205;-59
2021/01/30 05:43:39;;;;;;;0.95;0.45;;;;;;;25.27;38.97;96849.66;4993121;28;20582;-55
2021/01/30 05:46:07;;;;;;;2.95;0.32;;;;;;;25.35;38.35;96852.06;4993666;28;20233;-59
2021/01/30 05:48:38;;;;;;;2.67;0.40;;;;;;;25.30;38.13;96854.56;4988461;28;20278;-57
2021/01/30 05:51:13;;;;;;;0.63;0.30;;;;;;;25.28;38.18;96851.28;4973599;28;20212;-58
2021/01/30 05:53:40;;;;;;;0.60;0.28;;;;;;;25.28;37.85;96852.13;4973354;28;20693;-59
2021/01/30 05:56:06;;;;;;;1.10;0.40;;;;;;;25.32;38.01;96849.00;4980147;28;20219;-58
2021/01/30 05:58:41;;;;;;;2.28;0.38;;;;;;;25.30;37.60;96842.00;4989796;28;20217;-56
2021/01/30 06:01:22;;;;;;;0.95;0.50;;;;;;;25.24;38.40;96847.38;4985122;28;20569;-60
2021/01/30 06:03:56;;;;;;;0.90;0.40;;;;;;;25.21;38.08;96845.13;4972094;28;20258;-59
2021/01/30 06:06:25;;;;;;;1.17;0.35;;;;;;;25.24;38.15;96842.84;4988620;28;20201;-58
2021/01/30 06:08:56;;;;;;;0.98;0.30;;;;;;;25.18;37.70;96832.19;4992168;28;20205;-58
2021/01/30 06:11:22;;;;;;;4.50;0.57;;;;;;;25.18;37.89;96841.06;4991939;28;20209;-58
2021/01/30 06:13:54;;;;;;;1.98;0.50;;;;;;;25.21;38.47;96840.59;4992142;28;20252;-59
2021/01/30 06:16:40;;;;;;;0.80;0.30;;;;;;;25.15;38.21;96829.94;4992448;28;20205;-59
2021/01/30 06:19:13;;;;;;;1.23;0.38;;;;;;;25.18;37.61;96834.88;4973954;28;20206;-58
2021/01/30 06:21:40;;;;;;;0.55;0.40;;;;;;;25.13;38.44;96832.88;4982314;28;20211;-59
2021/01/30 06:24:08;;;;;;;2.15;0.40;;;;;;;25.11;37.56;96835.75;4990969;28;20713;-58
2021/01/30 06:26:40;;;;;;;2.30;0.30;;;;;;;25.16;37.50;96827.06;4992459;28;20213;-56
2021/01/30 06:29:14;;;;;;;0.77;0.28;;;;;;;25.15;38.15;96827.28;4991353;28;20211;-58
2021/01/30 06:31:41;;;;;;;0.75;0.30;;;;;;;25.05;37.47;96822.44;4992862;28;20196;-58
2021/01/30 06:34:23;;;;;;;3.45;0.50;;;;;;;25.10;37.57;96820.72;4990389;28;20240;-57
2021/01/30 06:36:52;;;;;;;0.43;0.20;;;;;;;25.04;37.59;96826.94;4992149;28;20209;-58
2021/01/30 06:39:28;;;;;;;2.13;0.50;;;;;;;25.15;37.41;96819.25;4992490;28;20681;-56
2021/01/30 06:41:57;;;;;;;1.20;0.50;;;;;;;25.02;37.70;96823.66;4991440;28;20209;-58
2021/01/30 06:44:27;;;;;;;1.10;0.35;;;;;;;24.93;38.52;96816.94;4992864;28;20205;-57
2021/01/30 06:47:15;;;;;;;0.50;0.30;;;;;;;24.93;38.85;96811.59;4991063;28;20296;-57
2021/01/30 06:49:43;;;;;;;2.85;0.55;;;;;;;25.12;37.51;96821.31;4992172;28;20263;-57
2021/01/30 06:52:14;;;;;;;1.20;0.40;;;;;;;25.14;37.48;96828.31;4991912;28;20264;-56
2021/01/30 06:54:40;;;;;;;1.90;0.30;;;;;;;25.28;38.39;96829.88;4991676;28;20280;-56
2021/01/30 06:57:11;;;;;;;2.15;0.30;;;;;;;25.36;38.01;96824.25;4990447;28;20664;-55
2021/01/30 06:59:48;;;;;;;1.25;0.40;;;;;;;25.49;38.22;96820.66;4990596;28;20205;-58
2021/01/30 07:02:19;;;;;;;2.17;0.60;;;;;;;25.63;37.01;96827.53;4990902;28;20231;-59
2021/01/30 07:05:19;;;;;;;0.32;0.20;;;;;;;25.63;36.90;96816.81;4983840;28;20202;-55
2021/01/30 07:07:57;;;;;;;0.70;0.40;;;;;;;25.73;37.07;96816.31;4970460;28;20686;-58
2021/01/30 07:10:38;;;;;;;0.98;0.45;;;;;;;25.83;37.55;96816.63;4972666;28;20560;-58
2021/01/30 07:13:31;;;;;;;0.75;0.40;;;;;;;25.83;36.88;96816.63;4972690;28;20288;-58
2021/01/30 07:16:10;;;;;;;1.15;0.40;;;;;;;25.90;36.71;96815.75;4976856;28;20206;-59
2021/01/30 07:18:56;;;;;;;2.40;0.52;;;;;;;25.90;36.49;96810.41;4976541;28;20669;-60
2021/01/30 07:21:24;;;;;;;1.70;0.40;;;;;;;25.90;37.17;96813.06;4986864;28;20197;-57
2021/01/30 07:24:04;;;;;;;1.52;0.47;;;;;;;25.83;36.60;96811.28;4995238;28;20237;-59
2021/01/30 07:26:36;;;;;;;1.27;0.40;;;;;;;25.83;37.44;96800.56;4995666;28;20287;-57
2021/01/30 07:29:06;;;;;;;1.30;0.30;;;;;;;25.87;36.98;96806.28;4995470;28;20562;-59
2021/01/30 07:31:37;;;;;;;0.50;0.40;;;;;;;25.81;36.59;96801.81;4995978;28;20212;-59
2021/01/30 07:34:15;;;;;;;2.70;0.43;;;;;;;25.82;37.54;96804.28;4995200;28;20644;-58
2021/01/30 07:36:48;;;;;;;0.95;0.47;;;;;;;25.77;37.69;96804.13;4995592;28;20209;-60
2021/01/30 07:39:27;;;;;;;1.23;0.50;;;;;;;25.78;36.69;96797.75;4996678;28;20225;-59
2021/01/30 07:41:57;;;;;;;1.60;0.40;;;;;;;25.67;37.83;96795.78;4995735;28;20217;-58
2021/01/30 07:44:30;;;;;;;0.85;0.40;;;;;;;25.64;37.46;96796.22;4994302;28;20210;-58
2021/01/30 07:47:16;;;;;;;2.60;0.35;;;;;;;25.59;37.94;96793.41;4995266;28;20210;-59
2021/01/30 07:49:47;;;;;;;0.70;0.40;;;;;;;25.57;37.35;96785.59;4995187;28;20252;-59
2021/01/30 07:52:18;;;;;;;0.28;0.20;;;;;;;25.57;37.50;96795.47;4994335;28;20229;-58
2021/01/30 07:54:49;;;;;;;0.47;0.20;;;;;;;25.55;37.38;96787.66;4994637;28;20213;-53
2021/01/30 07:57:36;;;;;;;2.65;0.30;;;;;;;25.53;37.92;96786.25;4993996;28;20201;-59
2021/01/30 08:00:08;;;;;;;1.42;0.55;;;;;;;25.46;37.62;96779.13;4995176;28;20292;-55
2021/01/30 08:02:50;;;;;;;3.95;0.93;;;;;;;25.43;38.79;96774.22;4975151;28;20222;-56
2021/01/30 08:05:36;;;;;;;2.55;0.40;;;;;;;25.34;38.56;96775.50;4975798;28;20282;-57
2021/01/30 08:08:11;;;;;;;3.45;0.60;;;;;;;25.39;38.41;96769.50;4985475;28;20676;-59
2021/01/30 08:10:54;;;;;;;1.45;0.60;;;;;;;25.29;37.62;96772.69;4979364;28;20289;-58
2021/01/30 08:13:29;;;;;;;5.35;0.88;;;;;;;25.23;38.27;96763.66;4979633;28;20225;-58
2021/01/30 08:16:02;;;;;;;3.83;0.98;;;;;;;25.19;38.71;96767.78;4995517;28;20223;-59
2021/01/30 08:18:37;;;;;;;4.38;0.80;;;;;;;25.11;38.14;96760.88;4995325;28;20296;-55
2021/01/30 08:21:14;;;;;;;6.97;0.98;;;;;;;25.11;37.90;96758.22;4994484;28;20218;-57
2021/01/30 08:23:51;;;;;;;5.97;1.05;;;;;;;25.09;38.75;96762.13;4995527;28;20225;-58
2021/01/30 08:26:22;;;;;;;3.17;0.70;;;;;;;25.09;38.62;96760.25;4984836;28;20293;-57
2021/01/30 08:29:00;;;;;;;3.30;0.63;;;;;;;25.08;37.78;96758.63;4975061;28;20329;-58
2021/01/30 08:31:36;;;;;;;2.05;0.70;;;;;;;24.99;37.89;96757.25;4975392;28;20214;-57
2021/01/30 08:34:09;;;;;;;2.20;0.70;;;;;;;25.04;38.53;96752.06;4974228;28;20660;-67
2021/01/30 08:36:39;;;;;;;6.85;1.20;;;;;;;25.06;39.24;96750.03;4974893;28;20206;-68
2021/01/30 08:39:21;;;;;;;6.47;1.10;;;;;;;25.08;39.63;96745.28;4991448;28;20304;-67
2021/01/30 08:41:52;;;;;;;10.18;1.33;;;;;;;25.18;39.58;96749.28;4980560;28;20680;-67
2021/01/30 08:44:32;;;;;;;7.78;1.40;;;;;;;25.25;39.55;96742.84;4992719;28;20209;-67
2021/01/30 08:47:08;;;;;;;14.05;1.67;;;;;;;25.26;38.58;96743.66;4992727;28;20291;-66
2021/01/30 08:49:34;;;;;;;5.70;1.30;;;;;;;25.22;39.48;96740.63;4992001;28;20205;-66
2021/01/30 08:52:24;;;;;;;4.35;0.80;;;;;;;25.34;38.37;96750.63;4992484;28;20303;-66
2021/01/30 08:54:50;;;;;;;11.10;1.25;;;;;;;25.51;38.71;96753.53;4992675;28;20285;-66
2021/01/30 08:57:43;;;;;;;6.32;1.05;;;;;;;25.49;38.84;96754.56;4990231;28;20288;-66
2021/01/30 09:00:57;;;;;;;5.78;1.25;;;;;;;25.52;38.16;96752.53;4993000;28;20202;-64
2021/01/30 09:03:47;;;;;;;8.32;1.20;;;;;;;25.49;38.04;96751.91;4992395;28;20228;-65
2021/01/30 09:06:48;;;;;;;4.43;0.88;;;;;;;25.39;38.07;96753.47;4991182;28;20197;-65
2021/01/30 09:09:16;;;;;;;6.85;1.15;;;;;;;25.47;38.36;96751.31;4994184;28;20208;-68
2021/01/30 09:11:44;;;;;;;6.32;1.00;;;;;;;25.49;38.16;96751.91;4993148;28;20305;-68
2021/01/30 09:14:34;;;;;;;2.55;0.88;;;;;;;25.47;38.80;96753.19;4992403;28;20298;-68
2021/01/30 09:17:34;;;;;;;5.60;1.00;;;;;;;25.50;38.41;96750.06;4993151;28;20205;-68
2021/01/30 09:20:25;;;;;;;13.50;1.10;;;;;;;25.52;38.94;96731.91;4982146;28;20206;-68
2021/01/30 09:23:08;;;;;;;8.32;1.42;;;;;;;25.59;39.15;96727.31;4986427;28;20308;-67
2021/01/30 09:25:46;;;;;;;14.63;1.70;;;;;;;25.62;39.58;96732.22;4992550;28;20779;-68
2021/01/30 09:28:16;;;;;;;19.70;1.77;;;;;;;25.73;40.35;96725.31;4992532;28;20288;-68
2021/01/30 09:30:51;;;;;;;9.52;1.23;;;;;;;25.73;40.29;96727.16;4994492;28;20296;-68
2021/01/30 09:33:23;;;;;;;12.35;1.55;;;;;;;25.71;39.51;96718.53;4992116;28;20269;-67
2021/01/30 09:35:54;;;;;;;11.23;1.58;;;;;;;25.70;40.05;96725.75;4992706;28;20247;-68
2021/01/30 09:38:26;;;;;;;10.70;1.55;;;;;;;25.79;39.24;96711.03;4991139;28;20729;-68
2021/01/30 09:41:11;;;;;;;8.55;1.55;;;;;;;25.72;39.36;96721.00;4989525;28;20201;-66
2021/01/30 09:43:38;;;;;;;5.25;1.20;;;;;;;25.78;39.08;96712.09;4993622;28;20272;-66
2021/01/30 09:46:11;;;;;;;7.28;1.13;;;;;;;25.93;39.35;96718.91;4990108;28;20550;-66
2021/01/30 09:48:39;;;;;;;9.98;1.60;;;;;;;26.01;38.76;96716.78;4992227;28;20312;-66
2021/01/30 09:51:07;;;;;;;11.45;1.70;;;;;;;25.97;39.16;96718.25;4991739;28;20232;-66
2021/01/30 09:53:38;;;;;;;5.88;1.50;;;;;;;25.85;38.52;96715.50;4991976;28;20312;-66
2021/01/30 09:56:08;;;;;;;5.65;1.45;;;;;;;25.77;39.16;96720.34;4992797;28;20344;-66
2021/01/30 09:58:37;;;;;;;8.15;1.55;;;;;;;25.79;39.05;96728.94;4991017;28;20240;-66
2021/01/30 10:01:08;;;;;;;8.52;1.70;;;;;;;25.80;38.29;96725.25;4991900;28;20198;-66
2021/01/30 10:03:37;;;;;;;7.65;1.83;;;;;;;25.69;38.34;96720.63;4973524;28;20317;-65
2021/01/30 10:06:16;;;;;;;27.88;2.30;;;;;;;25.73;37.87;96714.63;4983367;28;20333;-67
2021/01/30 10:08:44;;;;;;;18.85;2.28;;;;;;;25.66;36.95;96721.88;4991694;28;20207;-67
2021/01/30 10:11:14;;;;;;;17.75;1.77;;;;;;;25.73;37.18;96711.94;4992295;28;20236;-70
2021/01/30 10:13:43;;;;;;;11.40;1.35;;;;;;;25.67;38.19;96720.84;4992077;28;20268;-65
2021/01/30 10:16:13;;;;;;;11.70;1.65;;;;;;;25.70;38.38;96715.06;4992139;28;20285;-68
2021/01/30 10:18:45;;;;;;;12.40;1.85;;;;;;;25.42;36.15;96713.69;4991584;28;20229;-68
2021/01/30 10:21:12;;;;;;;8.63;1.80;;;;;;;25.21;34.35;96711.41;4991721;28;20229;-68
2021/01/30 10:23:42;;;;;;;12.68;2.58;;;;;;;25.06;34.96;96712.59;4990756;28;20304;-69
2021/01/30 10:26:12;;;;;;;6.82;1.40;;;;;;;25.19;35.02;96713.50;4991142;28;20292;-70
2021/01/30 10:28:49;;;;;;;26.35;1.92;;;;;;;25.20;36.20;96699.09;4992059;28;20209;-67
2021/01/30 10:31:19;;;;;;;12.32;1.55;;;;;;;25.11;38.06;96704.72;4991551;28;20288;-66
2021/01/30 10:33:48;;;;;;;5.18;1.50;;;;;;;24.96;38.60;96698.88;4972112;28;20245;-65
2021/01/30 10:36:17;;;;;;;8.82;1.50;;;;;;;24.88;38.06;96688.47;4981822;28;20198;-65
2021/01/30 10:38:43;;;;;;;6.47;1.67;;;;;;;24.93;38.46;96688.63;4990476;28;20233;-66
2021/01/30 10:41:16;;;;;;;6.80;1.77;;;;;;;24.97;38.14;96684.50;4991038;28;20204;-65
2021/01/30 10:43:44;;;;;;;4.90;1.20;;;;;;;24.93;38.31;96689.47;4991784;28;20241;-65
2021/01/30 10:46:25;;;;;;;13.95;2.55;;;;;;;24.90;40.31;96683.75;4991652;28;20680;-68
2021/01/30 10:48:51;;;;;;;6.15;1.45;;;;;;;25.00;41.66;96678.72;4988108;28;20714;-68
2021/01/30 10:51:21;;;;;;;5.95;1.60;;;;;;;25.12;42.11;96681.47;4991615;28;20267;-69
2021/01/30 10:53:48;;;;;;;7.28;1.73;;;;;;;25.16;42.27;96676.50;4992078;28;20221;-68
2021/01/30 10:56:21;;;;;;;7.93;1.65;;;;;;;25.23;42.07;96678.06;4990349;28;20234;-69
2021/01/30 10:58:48;;;;;;;6.07;1.67;;;;;;;25.28;40.88;96680.94;4991447;28;20222;-68
2021/01/30 11:01:29;;;;;;;9.43;1.50;;;;;;;25.36;41.60;96685.16;4992516;28;20269;-69
2021/01/30 11:03:56;;;;;;;5.57;1.40;;;;;;;25.42;40.72;96680.78;4991478;28;20221;-69
2021/01/30 11:06:29;;;;;;;5.20;1.58;;;;;;;25.45;41.57;96677.69;4991860;28;20209;-68
2021/01/30 11:08:57;;;;;;;5.55;1.23;;;;;;;25.48;41.13;96679.91;4990821;28;20280;-70
2021/01/30 11:11:28;;;;;;;8.10;1.65;;;;;;;25.48;41.55;96674.56;4991332;28;20360;-69
2021/01/30 11:13:54;;;;;;;3.92;1.20;;;;;;;25.45;41.52;96665.09;4990847;28;20308;-69
2021/01/30 11:16:26;;;;;;;4.55;1.33;;;;;;;25.48;40.80;96661.19;4991335;28;20673;-67
2021/01/30 11:18:54;;;;;;;13.43;1.70;;;;;;;25.33;39.18;96663.38;4991569;28;20288;-67
2021/01/30 11:21:34;;;;;;;6.85;1.50;;;;;;;25.19;39.89;96654.66;4990771;28;20201;-71
2021/01/30 11:24:17;;;;;;;3.63;1.10;;;;;;;25.14;40.32;96654.50;4990315;28;20221;-69
2021/01/30 11:26:44;;;;;;;4.57;1.33;;;;;;;25.14;39.63;96651.84;4991093;28;20296;-68
2021/01/30 11:29:34;;;;;;;6.63;1.67;;;;;;;25.21;40.62;96641.88;4989061;28;20197;-66
2021/01/30 11:32:03;;;;;;;7.65;1.23;;;;;;;25.18;39.85;96643.16;4991595;28;20691;-68
2021/01/30 11:34:30;;;;;;;13.52;2.15;;;;;;;25.12;39.91;96634.16;4990121;28;20277;-68
2021/01/30 11:36:56;;;;;;;7.15;1.40;;;;;;;25.16;39.84;96636.38;4988822;28;20305;-68
2021/01/30 11:39:29;;;;;;;14.05;1.60;;;;;;;25.16;40.98;96628.38;4989496;28;20205;-69
2021/01/30 11:41:55;;;;;;;2.88;0.93;;;;;;;25.34;40.46;96625.72;4990445;28;20377;-68
2021/01/30 11:44:22;;;;;;;4.88;1.20;;;;;;;25.37;40.58;96614.56;4989112;28;20328;-69
2021/01/30 11:46:48;;;;;;;7.68;1.38;;;;;;;25.40;40.60;96603.44;4989995;28;20233;-68
2021/01/30 11:49:15;;;;;;;5.93;1.42;;;;;;;25.46;40.52;96605.22;4989293;28;20280;-68
2021/01/30 11:51:42;;;;;;;19.02;1.40;;;;;;;25.46;39.28;96602.53;4990112;28;20201;-68
2021/01/30 11:54:09;;;;;;;5.85;1.00;;;;;;;25.54;39.64;96592.56;4991133;28;20309;-69
2021/01/30 11:56:35;;;;;;;4.50;1.35;;;;;;;25.59;40.08;96590.03;4990514;28;20649;-66